sensor_id;sensor_type;location;lat;lon;timestamp;P1;durP1;ratioP1;P2;durP2;ratioP2
34102;SDS011;20381;54.498;18.206;2023-04-24T00:00:31;9.75;;;8.00;;
34102;SDS011;20381;54.498;18.206;2023-04-24T00:02:59;8.70;;;7.70;;
34102;SDS011;20381;54.498;18.206;2023-04-24T00:05:25;11.00;;;8.08;;
34102;SDS011;20381;54.498;18.206;2023-04-24T00:07:51;8.70;;;7.78;;
34102;SDS011;20381;54.498;18.206;2023-04-24T00:10:18;10.13;;;8.70;;
34102;SDS011;20381;54.498;18.206;2023-04-24T00:12:44;12.45;;;10.18;;
34102;SDS011;20381;54.498;18.206;2023-04-24T00:15:10;10.03;;;9.03;;
34102;SDS011;20381;54.498;18.206;2023-04-24T00:17:38;11.08;;;9.98;;
34102;SDS011;20381;54.498;18.206;2023-04-24T00:20:05;11.40;;;9.33;;
34102;SDS011;20381;54.498;18.206;2023-04-24T00:22:32;11.35;;;9.25;;
34102;SDS011;20381;54.498;18.206;2023-04-24T00:24:58;9.13;;;8.15;;
34102;SDS011;20381;54.498;18.206;2023-04-24T00:27:25;11.53;;;9.00;;
34102;SDS011;20381;54.498;18.206;2023-04-24T00:29:52;10.85;;;9.23;;
34102;SDS011;20381;54.498;18.206;2023-04-24T00:32:18;11.70;;;9.55;;
34102;SDS011;20381;54.498;18.206;2023-04-24T00:34:45;10.80;;;9.13;;
34102;SDS011;20381;54.498;18.206;2023-04-24T00:37:11;12.70;;;9.13;;
34102;SDS011;20381;54.498;18.206;2023-04-24T00:39:37;12.45;;;9.58;;
34102;SDS011;20381;54.498;18.206;2023-04-24T00:42:03;9.40;;;8.40;;
34102;SDS011;20381;54.498;18.206;2023-04-24T00:44:32;12.03;;;9.08;;
34102;SDS011;20381;54.498;18.206;2023-04-24T00:47:00;9.28;;;8.38;;
34102;SDS011;20381;54.498;18.206;2023-04-24T00:51:53;11.40;;;9.38;;
34102;SDS011;20381;54.498;18.206;2023-04-24T00:54:20;10.88;;;9.18;;
34102;SDS011;20381;54.498;18.206;2023-04-24T00:56:46;11.85;;;8.50;;
34102;SDS011;20381;54.498;18.206;2023-04-24T00:59:13;10.15;;;9.15;;
34102;SDS011;20381;54.498;18.206;2023-04-24T01:01:41;10.98;;;9.03;;
34102;SDS011;20381;54.498;18.206;2023-04-24T01:04:09;9.50;;;8.55;;
34102;SDS011;20381;54.498;18.206;2023-04-24T01:06:37;10.93;;;9.78;;
34102;SDS011;20381;54.498;18.206;2023-04-24T01:09:05;10.55;;;9.45;;
34102;SDS011;20381;54.498;18.206;2023-04-24T01:11:34;13.45;;;10.15;;
34102;SDS011;20381;54.498;18.206;2023-04-24T01:14:01;12.75;;;10.85;;
34102;SDS011;20381;54.498;18.206;2023-04-24T01:16:27;10.80;;;9.70;;
34102;SDS011;20381;54.498;18.206;2023-04-24T01:18:53;11.12;;;10.03;;
34102;SDS011;20381;54.498;18.206;2023-04-24T01:21:20;12.33;;;10.70;;
34102;SDS011;20381;54.498;18.206;2023-04-24T01:26:15;13.78;;;12.03;;
34102;SDS011;20381;54.498;18.206;2023-04-24T01:28:43;16.85;;;12.40;;
34102;SDS011;20381;54.498;18.206;2023-04-24T01:31:09;14.70;;;12.00;;
34102;SDS011;20381;54.498;18.206;2023-04-24T01:33:35;15.10;;;12.40;;
34102;SDS011;20381;54.498;18.206;2023-04-24T01:36:02;15.30;;;11.38;;
34102;SDS011;20381;54.498;18.206;2023-04-24T01:38:28;13.10;;;11.00;;
34102;SDS011;20381;54.498;18.206;2023-04-24T01:40:54;12.90;;;11.33;;
34102;SDS011;20381;54.498;18.206;2023-04-24T01:43:21;14.68;;;11.93;;
34102;SDS011;20381;54.498;18.206;2023-04-24T01:45:47;17.07;;;12.47;;
34102;SDS011;20381;54.498;18.206;2023-04-24T01:48:13;14.25;;;12.10;;
34102;SDS011;20381;54.498;18.206;2023-04-24T01:50:40;15.63;;;11.73;;
34102;SDS011;20381;54.498;18.206;2023-04-24T01:53:06;15.18;;;12.25;;
34102;SDS011;20381;54.498;18.206;2023-04-24T01:55:32;16.95;;;12.40;;
34102;SDS011;20381;54.498;18.206;2023-04-24T01:57:59;14.73;;;13.10;;
34102;SDS011;20381;54.498;18.206;2023-04-24T02:00:27;17.07;;;12.90;;
34102;SDS011;20381;54.498;18.206;2023-04-24T02:02:54;16.07;;;13.30;;
34102;SDS011;20381;54.498;18.206;2023-04-24T02:05:20;17.00;;;12.20;;
34102;SDS011;20381;54.498;18.206;2023-04-24T02:07:46;20.15;;;13.28;;
34102;SDS011;20381;54.498;18.206;2023-04-24T02:10:12;20.60;;;13.48;;
34102;SDS011;20381;54.498;18.206;2023-04-24T02:12:39;19.15;;;12.98;;
34102;SDS011;20381;54.498;18.206;2023-04-24T02:15:06;18.65;;;13.58;;
34102;SDS011;20381;54.498;18.206;2023-04-24T02:17:32;21.15;;;14.05;;
34102;SDS011;20381;54.498;18.206;2023-04-24T02:19:58;24.07;;;13.93;;
34102;SDS011;20381;54.498;18.206;2023-04-24T02:22:24;21.15;;;14.70;;
34102;SDS011;20381;54.498;18.206;2023-04-24T02:24:51;22.73;;;15.28;;
34102;SDS011;20381;54.498;18.206;2023-04-24T02:27:19;25.32;;;15.25;;
34102;SDS011;20381;54.498;18.206;2023-04-24T02:29:45;20.75;;;14.50;;
34102;SDS011;20381;54.498;18.206;2023-04-24T02:32:11;18.73;;;14.60;;
34102;SDS011;20381;54.498;18.206;2023-04-24T02:34:37;19.92;;;14.80;;
34102;SDS011;20381;54.498;18.206;2023-04-24T02:37:04;20.57;;;14.53;;
34102;SDS011;20381;54.498;18.206;2023-04-24T02:39:30;19.95;;;14.23;;
34102;SDS011;20381;54.498;18.206;2023-04-24T02:41:56;20.95;;;14.93;;
34102;SDS011;20381;54.498;18.206;2023-04-24T02:44:23;21.27;;;18.67;;
34102;SDS011;20381;54.498;18.206;2023-04-24T02:46:49;21.20;;;16.57;;
34102;SDS011;20381;54.498;18.206;2023-04-24T02:49:16;25.00;;;19.15;;
34102;SDS011;20381;54.498;18.206;2023-04-24T02:51:42;34.43;;;27.05;;
34102;SDS011;20381;54.498;18.206;2023-04-24T02:54:08;38.08;;;28.95;;
34102;SDS011;20381;54.498;18.206;2023-04-24T02:56:35;40.52;;;30.57;;
34102;SDS011;20381;54.498;18.206;2023-04-24T02:59:01;37.25;;;29.67;;
34102;SDS011;20381;54.498;18.206;2023-04-24T03:01:28;44.30;;;30.63;;
34102;SDS011;20381;54.498;18.206;2023-04-24T03:03:55;40.85;;;30.85;;
34102;SDS011;20381;54.498;18.206;2023-04-24T03:06:21;39.03;;;29.95;;
34102;SDS011;20381;54.498;18.206;2023-04-24T03:08:47;42.83;;;30.97;;
34102;SDS011;20381;54.498;18.206;2023-04-24T03:11:13;44.05;;;32.38;;
34102;SDS011;20381;54.498;18.206;2023-04-24T03:13:39;44.90;;;32.42;;
34102;SDS011;20381;54.498;18.206;2023-04-24T03:16:06;40.83;;;32.83;;
34102;SDS011;20381;54.498;18.206;2023-04-24T03:18:32;40.48;;;28.27;;
34102;SDS011;20381;54.498;18.206;2023-04-24T03:20:59;44.63;;;29.10;;
34102;SDS011;20381;54.498;18.206;2023-04-24T03:23:26;35.63;;;26.42;;
34102;SDS011;20381;54.498;18.206;2023-04-24T03:25:52;39.23;;;27.30;;
34102;SDS011;20381;54.498;18.206;2023-04-24T03:28:20;36.68;;;27.58;;
34102;SDS011;20381;54.498;18.206;2023-04-24T03:30:47;43.45;;;26.35;;
34102;SDS011;20381;54.498;18.206;2023-04-24T03:33:13;49.67;;;27.00;;
34102;SDS011;20381;54.498;18.206;2023-04-24T03:35:40;40.75;;;29.00;;
34102;SDS011;20381;54.498;18.206;2023-04-24T03:38:06;39.55;;;29.18;;
34102;SDS011;20381;54.498;18.206;2023-04-24T03:40:33;37.53;;;26.73;;
34102;SDS011;20381;54.498;18.206;2023-04-24T03:42:59;38.28;;;26.75;;
34102;SDS011;20381;54.498;18.206;2023-04-24T03:45:25;35.23;;;27.37;;
34102;SDS011;20381;54.498;18.206;2023-04-24T03:47:51;40.45;;;27.10;;
34102;SDS011;20381;54.498;18.206;2023-04-24T03:50:17;36.05;;;24.25;;
34102;SDS011;20381;54.498;18.206;2023-04-24T03:52:44;33.48;;;24.77;;
34102;SDS011;20381;54.498;18.206;2023-04-24T03:55:10;36.25;;;24.50;;
34102;SDS011;20381;54.498;18.206;2023-04-24T03:57:39;37.13;;;26.27;;
34102;SDS011;20381;54.498;18.206;2023-04-24T04:00:06;36.95;;;26.85;;
34102;SDS011;20381;54.498;18.206;2023-04-24T04:02:34;43.17;;;29.52;;
34102;SDS011;20381;54.498;18.206;2023-04-24T04:05:00;36.90;;;25.88;;
34102;SDS011;20381;54.498;18.206;2023-04-24T04:07:27;36.15;;;24.23;;
34102;SDS011;20381;54.498;18.206;2023-04-24T04:09:55;39.63;;;27.13;;
34102;SDS011;20381;54.498;18.206;2023-04-24T04:12:21;33.18;;;23.07;;
34102;SDS011;20381;54.498;18.206;2023-04-24T04:14:50;35.35;;;25.17;;
34102;SDS011;20381;54.498;18.206;2023-04-24T04:17:18;38.25;;;23.12;;
34102;SDS011;20381;54.498;18.206;2023-04-24T04:19:44;39.27;;;24.40;;
34102;SDS011;20381;54.498;18.206;2023-04-24T04:22:10;43.02;;;23.25;;
34102;SDS011;20381;54.498;18.206;2023-04-24T04:24:36;36.20;;;22.58;;
34102;SDS011;20381;54.498;18.206;2023-04-24T04:27:03;43.65;;;23.07;;
34102;SDS011;20381;54.498;18.206;2023-04-24T04:29:31;41.18;;;23.60;;
34102;SDS011;20381;54.498;18.206;2023-04-24T04:31:58;34.35;;;22.87;;
34102;SDS011;20381;54.498;18.206;2023-04-24T04:34:25;43.50;;;23.12;;
34102;SDS011;20381;54.498;18.206;2023-04-24T04:36:51;34.00;;;23.07;;
34102;SDS011;20381;54.498;18.206;2023-04-24T04:39:18;38.17;;;24.12;;
34102;SDS011;20381;54.498;18.206;2023-04-24T04:41:45;34.38;;;23.52;;
34102;SDS011;20381;54.498;18.206;2023-04-24T04:44:14;34.58;;;21.75;;
34102;SDS011;20381;54.498;18.206;2023-04-24T04:46:41;35.13;;;20.52;;
34102;SDS011;20381;54.498;18.206;2023-04-24T04:49:07;31.60;;;22.33;;
34102;SDS011;20381;54.498;18.206;2023-04-24T04:51:34;153.70;;;102.58;;
34102;SDS011;20381;54.498;18.206;2023-04-24T04:54:01;160.05;;;106.80;;
34102;SDS011;20381;54.498;18.206;2023-04-24T04:56:27;45.95;;;30.27;;
34102;SDS011;20381;54.498;18.206;2023-04-24T04:58:53;32.17;;;21.00;;
34102;SDS011;20381;54.498;18.206;2023-04-24T05:01:20;32.78;;;25.23;;
34102;SDS011;20381;54.498;18.206;2023-04-24T05:03:48;34.70;;;27.85;;
34102;SDS011;20381;54.498;18.206;2023-04-24T05:06:17;28.30;;;18.98;;
34102;SDS011;20381;54.498;18.206;2023-04-24T05:08:43;26.62;;;17.67;;
34102;SDS011;20381;54.498;18.206;2023-04-24T05:11:09;23.52;;;18.10;;
34102;SDS011;20381;54.498;18.206;2023-04-24T05:13:36;34.73;;;19.77;;
34102;SDS011;20381;54.498;18.206;2023-04-24T05:16:02;25.45;;;19.05;;
34102;SDS011;20381;54.498;18.206;2023-04-24T05:18:28;27.87;;;20.57;;
34102;SDS011;20381;54.498;18.206;2023-04-24T05:20:56;28.67;;;20.08;;
34102;SDS011;20381;54.498;18.206;2023-04-24T05:23:22;27.95;;;19.87;;
34102;SDS011;20381;54.498;18.206;2023-04-24T05:25:48;33.38;;;21.42;;
34102;SDS011;20381;54.498;18.206;2023-04-24T05:28:15;29.95;;;21.17;;
34102;SDS011;20381;54.498;18.206;2023-04-24T05:30:41;25.65;;;19.82;;
34102;SDS011;20381;54.498;18.206;2023-04-24T05:33:07;32.23;;;20.50;;
34102;SDS011;20381;54.498;18.206;2023-04-24T05:35:35;27.80;;;20.40;;
34102;SDS011;20381;54.498;18.206;2023-04-24T05:38:01;27.67;;;20.32;;
34102;SDS011;20381;54.498;18.206;2023-04-24T05:40:33;31.85;;;20.32;;
34102;SDS011;20381;54.498;18.206;2023-04-24T05:42:59;33.67;;;22.35;;
34102;SDS011;20381;54.498;18.206;2023-04-24T05:45:25;30.05;;;21.35;;
34102;SDS011;20381;54.498;18.206;2023-04-24T05:47:52;26.60;;;20.85;;
34102;SDS011;20381;54.498;18.206;2023-04-24T05:50:19;28.17;;;20.13;;
34102;SDS011;20381;54.498;18.206;2023-04-24T05:52:45;27.42;;;20.30;;
34102;SDS011;20381;54.498;18.206;2023-04-24T05:55:11;26.17;;;19.87;;
34102;SDS011;20381;54.498;18.206;2023-04-24T05:57:38;29.18;;;20.25;;
34102;SDS011;20381;54.498;18.206;2023-04-24T06:00:05;26.57;;;19.70;;
34102;SDS011;20381;54.498;18.206;2023-04-24T06:02:33;30.12;;;20.23;;
34102;SDS011;20381;54.498;18.206;2023-04-24T06:05:02;26.12;;;21.37;;
34102;SDS011;20381;54.498;18.206;2023-04-24T06:07:30;29.10;;;21.00;;
34102;SDS011;20381;54.498;18.206;2023-04-24T06:09:57;24.55;;;19.65;;
34102;SDS011;20381;54.498;18.206;2023-04-24T06:12:23;30.95;;;21.50;;
34102;SDS011;20381;54.498;18.206;2023-04-24T06:14:49;28.77;;;20.70;;
34102;SDS011;20381;54.498;18.206;2023-04-24T06:17:16;29.75;;;20.92;;
34102;SDS011;20381;54.498;18.206;2023-04-24T06:19:42;30.02;;;19.57;;
34102;SDS011;20381;54.498;18.206;2023-04-24T06:22:08;28.53;;;20.53;;
34102;SDS011;20381;54.498;18.206;2023-04-24T06:24:35;27.30;;;18.73;;
34102;SDS011;20381;54.498;18.206;2023-04-24T06:27:01;28.12;;;19.40;;
34102;SDS011;20381;54.498;18.206;2023-04-24T06:29:28;24.47;;;19.60;;
34102;SDS011;20381;54.498;18.206;2023-04-24T06:31:54;22.82;;;18.52;;
34102;SDS011;20381;54.498;18.206;2023-04-24T06:34:20;23.10;;;19.30;;
34102;SDS011;20381;54.498;18.206;2023-04-24T06:36:47;23.47;;;19.32;;
34102;SDS011;20381;54.498;18.206;2023-04-24T06:39:18;28.55;;;20.70;;
34102;SDS011;20381;54.498;18.206;2023-04-24T06:41:43;28.83;;;19.20;;
34102;SDS011;20381;54.498;18.206;2023-04-24T06:44:09;25.00;;;20.35;;
34102;SDS011;20381;54.498;18.206;2023-04-24T06:46:35;25.95;;;21.00;;
34102;SDS011;20381;54.498;18.206;2023-04-24T06:49:02;24.18;;;20.90;;
34102;SDS011;20381;54.498;18.206;2023-04-24T06:51:29;27.48;;;21.23;;
34102;SDS011;20381;54.498;18.206;2023-04-24T06:53:59;30.37;;;21.75;;
34102;SDS011;20381;54.498;18.206;2023-04-24T06:56:25;31.17;;;22.90;;
34102;SDS011;20381;54.498;18.206;2023-04-24T06:58:52;32.42;;;21.93;;
34102;SDS011;20381;54.498;18.206;2023-04-24T07:01:18;31.55;;;23.20;;
34102;SDS011;20381;54.498;18.206;2023-04-24T07:03:45;31.13;;;22.70;;
34102;SDS011;20381;54.498;18.206;2023-04-24T07:06:11;31.65;;;23.85;;
34102;SDS011;20381;54.498;18.206;2023-04-24T07:08:38;29.15;;;21.68;;
34102;SDS011;20381;54.498;18.206;2023-04-24T07:11:05;25.70;;;20.02;;
34102;SDS011;20381;54.498;18.206;2023-04-24T07:13:31;29.05;;;19.52;;
34102;SDS011;20381;54.498;18.206;2023-04-24T07:15:57;23.52;;;19.70;;
34102;SDS011;20381;54.498;18.206;2023-04-24T07:18:25;23.20;;;18.10;;
34102;SDS011;20381;54.498;18.206;2023-04-24T07:20:51;22.98;;;18.10;;
34102;SDS011;20381;54.498;18.206;2023-04-24T07:23:17;25.62;;;18.67;;
34102;SDS011;20381;54.498;18.206;2023-04-24T07:25:46;20.88;;;16.77;;
34102;SDS011;20381;54.498;18.206;2023-04-24T07:28:12;20.40;;;15.78;;
34102;SDS011;20381;54.498;18.206;2023-04-24T07:30:39;20.30;;;15.65;;
34102;SDS011;20381;54.498;18.206;2023-04-24T07:33:05;20.95;;;14.38;;
34102;SDS011;20381;54.498;18.206;2023-04-24T07:35:32;17.03;;;14.57;;
34102;SDS011;20381;54.498;18.206;2023-04-24T07:37:58;20.12;;;15.30;;
34102;SDS011;20381;54.498;18.206;2023-04-24T07:40:25;25.55;;;15.75;;
34102;SDS011;20381;54.498;18.206;2023-04-24T07:42:52;22.15;;;15.80;;
34102;SDS011;20381;54.498;18.206;2023-04-24T07:45:19;20.47;;;14.30;;
34102;SDS011;20381;54.498;18.206;2023-04-24T07:47:46;25.23;;;15.25;;
34102;SDS011;20381;54.498;18.206;2023-04-24T07:50:14;18.77;;;15.45;;
34102;SDS011;20381;54.498;18.206;2023-04-24T07:52:40;17.40;;;14.35;;
34102;SDS011;20381;54.498;18.206;2023-04-24T07:55:07;18.87;;;14.87;;
34102;SDS011;20381;54.498;18.206;2023-04-24T07:57:33;21.25;;;15.32;;
34102;SDS011;20381;54.498;18.206;2023-04-24T08:00:00;18.05;;;14.33;;
34102;SDS011;20381;54.498;18.206;2023-04-24T08:02:27;17.95;;;13.60;;
34102;SDS011;20381;54.498;18.206;2023-04-24T08:04:53;18.60;;;13.75;;
34102;SDS011;20381;54.498;18.206;2023-04-24T08:07:20;17.77;;;13.53;;
34102;SDS011;20381;54.498;18.206;2023-04-24T08:09:46;17.87;;;14.33;;
34102;SDS011;20381;54.498;18.206;2023-04-24T08:12:13;15.88;;;13.32;;
34102;SDS011;20381;54.498;18.206;2023-04-24T08:14:40;18.03;;;13.13;;
34102;SDS011;20381;54.498;18.206;2023-04-24T08:17:06;17.40;;;13.00;;
34102;SDS011;20381;54.498;18.206;2023-04-24T08:19:32;16.70;;;12.40;;
34102;SDS011;20381;54.498;18.206;2023-04-24T08:21:59;15.47;;;13.07;;
34102;SDS011;20381;54.498;18.206;2023-04-24T08:24:25;15.55;;;12.50;;
34102;SDS011;20381;54.498;18.206;2023-04-24T08:26:51;18.85;;;13.03;;
34102;SDS011;20381;54.498;18.206;2023-04-24T08:29:20;16.52;;;12.37;;
34102;SDS011;20381;54.498;18.206;2023-04-24T08:31:46;15.53;;;13.45;;
34102;SDS011;20381;54.498;18.206;2023-04-24T08:34:12;24.63;;;14.38;;
34102;SDS011;20381;54.498;18.206;2023-04-24T08:36:39;22.77;;;13.33;;
34102;SDS011;20381;54.498;18.206;2023-04-24T08:39:06;19.17;;;13.48;;
34102;SDS011;20381;54.498;18.206;2023-04-24T08:41:33;14.33;;;11.85;;
34102;SDS011;20381;54.498;18.206;2023-04-24T08:44:01;18.85;;;13.35;;
34102;SDS011;20381;54.498;18.206;2023-04-24T08:46:28;23.40;;;12.65;;
34102;SDS011;20381;54.498;18.206;2023-04-24T08:48:56;14.47;;;10.80;;
34102;SDS011;20381;54.498;18.206;2023-04-24T08:51:22;18.80;;;11.80;;
34102;SDS011;20381;54.498;18.206;2023-04-24T08:53:51;13.20;;;10.75;;
34102;SDS011;20381;54.498;18.206;2023-04-24T08:56:21;15.03;;;10.60;;
34102;SDS011;20381;54.498;18.206;2023-04-24T08:58:52;12.53;;;10.55;;
34102;SDS011;20381;54.498;18.206;2023-04-24T09:01:22;12.53;;;9.73;;
34102;SDS011;20381;54.498;18.206;2023-04-24T09:03:50;13.35;;;9.98;;
34102;SDS011;20381;54.498;18.206;2023-04-24T09:06:18;9.88;;;8.63;;
34102;SDS011;20381;54.498;18.206;2023-04-24T09:08:47;15.78;;;10.68;;
34102;SDS011;20381;54.498;18.206;2023-04-24T09:11:18;18.55;;;9.83;;
34102;SDS011;20381;54.498;18.206;2023-04-24T09:13:44;12.28;;;8.25;;
34102;SDS011;20381;54.498;18.206;2023-04-24T09:16:11;17.17;;;8.68;;
34102;SDS011;20381;54.498;18.206;2023-04-24T09:18:40;9.10;;;8.00;;
34102;SDS011;20381;54.498;18.206;2023-04-24T09:23:33;10.78;;;7.37;;
34102;SDS011;20381;54.498;18.206;2023-04-24T09:26:03;6.67;;;5.90;;
34102;SDS011;20381;54.498;18.206;2023-04-24T09:28:37;13.72;;;6.58;;
34102;SDS011;20381;54.498;18.206;2023-04-24T09:31:09;9.90;;;8.08;;
34102;SDS011;20381;54.498;18.206;2023-04-24T09:33:38;11.38;;;5.83;;
34102;SDS011;20381;54.498;18.206;2023-04-24T09:36:05;7.35;;;6.03;;
34102;SDS011;20381;54.498;18.206;2023-04-24T09:38:33;10.93;;;6.90;;
34102;SDS011;20381;54.498;18.206;2023-04-24T09:41:01;12.13;;;6.30;;
34102;SDS011;20381;54.498;18.206;2023-04-24T09:43:32;9.23;;;6.00;;
34102;SDS011;20381;54.498;18.206;2023-04-24T09:46:03;6.60;;;5.67;;
34102;SDS011;20381;54.498;18.206;2023-04-24T09:48:31;5.85;;;5.25;;
34102;SDS011;20381;54.498;18.206;2023-04-24T09:51:00;10.85;;;5.78;;
34102;SDS011;20381;54.498;18.206;2023-04-24T09:53:28;11.15;;;5.65;;
34102;SDS011;20381;54.498;18.206;2023-04-24T09:56:01;7.47;;;5.50;;
34102;SDS011;20381;54.498;18.206;2023-04-24T09:58:29;8.08;;;5.65;;
34102;SDS011;20381;54.498;18.206;2023-04-24T10:00:55;8.08;;;6.12;;
34102;SDS011;20381;54.498;18.206;2023-04-24T10:03:25;8.03;;;6.78;;
34102;SDS011;20381;54.498;18.206;2023-04-24T10:05:54;7.95;;;6.67;;
34102;SDS011;20381;54.498;18.206;2023-04-24T10:08:25;16.77;;;7.87;;
34102;SDS011;20381;54.498;18.206;2023-04-24T10:10:54;13.48;;;7.20;;
34102;SDS011;20381;54.498;18.206;2023-04-24T10:13:21;8.30;;;6.72;;
34102;SDS011;20381;54.498;18.206;2023-04-24T10:15:47;8.48;;;7.37;;
34102;SDS011;20381;54.498;18.206;2023-04-24T10:18:14;8.05;;;6.30;;
34102;SDS011;20381;54.498;18.206;2023-04-24T10:20:42;9.15;;;7.58;;
34102;SDS011;20381;54.498;18.206;2023-04-24T10:23:09;9.50;;;6.55;;
34102;SDS011;20381;54.498;18.206;2023-04-24T10:25:37;7.58;;;4.83;;
34102;SDS011;20381;54.498;18.206;2023-04-24T10:28:04;8.33;;;5.40;;
34102;SDS011;20381;54.498;18.206;2023-04-24T10:30:32;4.87;;;4.28;;
34102;SDS011;20381;54.498;18.206;2023-04-24T10:33:03;7.67;;;5.05;;
34102;SDS011;20381;54.498;18.206;2023-04-24T10:35:32;10.70;;;5.72;;
34102;SDS011;20381;54.498;18.206;2023-04-24T10:38:11;14.47;;;4.37;;
34102;SDS011;20381;54.498;18.206;2023-04-24T10:40:41;7.12;;;6.42;;
34102;SDS011;20381;54.498;18.206;2023-04-24T10:43:09;7.97;;;6.92;;
34102;SDS011;20381;54.498;18.206;2023-04-24T10:45:37;9.88;;;6.62;;
34102;SDS011;20381;54.498;18.206;2023-04-24T10:48:04;12.65;;;6.17;;
34102;SDS011;20381;54.498;18.206;2023-04-24T10:50:46;9.33;;;6.70;;
34102;SDS011;20381;54.498;18.206;2023-04-24T10:53:15;8.95;;;6.60;;
34102;SDS011;20381;54.498;18.206;2023-04-24T10:58:16;15.15;;;6.67;;
34102;SDS011;20381;54.498;18.206;2023-04-24T11:00:48;10.05;;;6.60;;
34102;SDS011;20381;54.498;18.206;2023-04-24T11:03:25;11.65;;;7.58;;
34102;SDS011;20381;54.498;18.206;2023-04-24T11:05:55;10.45;;;6.87;;
34102;SDS011;20381;54.498;18.206;2023-04-24T11:11:16;13.22;;;6.72;;
34102;SDS011;20381;54.498;18.206;2023-04-24T11:19:07;9.15;;;7.03;;
34102;SDS011;20381;54.498;18.206;2023-04-24T11:29:43;7.50;;;5.97;;
34102;SDS011;20381;54.498;18.206;2023-04-24T11:34:45;15.40;;;6.97;;
34102;SDS011;20381;54.498;18.206;2023-04-24T11:37:13;9.55;;;5.75;;
34102;SDS011;20381;54.498;18.206;2023-04-24T11:39:40;16.70;;;6.80;;
34102;SDS011;20381;54.498;18.206;2023-04-24T11:42:06;10.55;;;5.83;;
34102;SDS011;20381;54.498;18.206;2023-04-24T11:44:35;10.40;;;6.85;;
34102;SDS011;20381;54.498;18.206;2023-04-24T11:47:07;13.15;;;7.17;;
34102;SDS011;20381;54.498;18.206;2023-04-24T11:49:36;8.83;;;6.97;;
34102;SDS011;20381;54.498;18.206;2023-04-24T11:52:02;12.13;;;7.55;;
34102;SDS011;20381;54.498;18.206;2023-04-24T11:54:34;9.58;;;8.65;;
34102;SDS011;20381;54.498;18.206;2023-04-24T11:56:58;12.43;;;7.65;;
34102;SDS011;20381;54.498;18.206;2023-04-24T11:59:27;10.00;;;8.05;;
34102;SDS011;20381;54.498;18.206;2023-04-24T12:01:53;9.83;;;7.28;;
34102;SDS011;20381;54.498;18.206;2023-04-24T12:04:20;11.35;;;7.30;;
34102;SDS011;20381;54.498;18.206;2023-04-24T12:06:58;9.15;;;7.00;;
34102;SDS011;20381;54.498;18.206;2023-04-24T12:09:26;32.38;;;9.30;;
34102;SDS011;20381;54.498;18.206;2023-04-24T12:11:57;9.33;;;5.92;;
34102;SDS011;20381;54.498;18.206;2023-04-24T12:14:24;16.12;;;7.17;;
34102;SDS011;20381;54.498;18.206;2023-04-24T12:16:51;12.23;;;7.03;;
34102;SDS011;20381;54.498;18.206;2023-04-24T12:19:21;15.78;;;11.03;;
34102;SDS011;20381;54.498;18.206;2023-04-24T12:22:01;9.45;;;6.97;;
34102;SDS011;20381;54.498;18.206;2023-04-24T12:24:29;7.30;;;6.65;;
34102;SDS011;20381;54.498;18.206;2023-04-24T12:26:57;14.28;;;8.58;;
34102;SDS011;20381;54.498;18.206;2023-04-24T12:29:30;12.03;;;6.97;;
34102;SDS011;20381;54.498;18.206;2023-04-24T12:31:57;9.23;;;7.67;;
34102;SDS011;20381;54.498;18.206;2023-04-24T12:34:25;9.35;;;6.40;;
34102;SDS011;20381;54.498;18.206;2023-04-24T12:36:53;7.05;;;6.00;;
34102;SDS011;20381;54.498;18.206;2023-04-24T12:39:19;9.03;;;6.07;;
34102;SDS011;20381;54.498;18.206;2023-04-24T12:41:50;8.15;;;5.22;;
34102;SDS011;20381;54.498;18.206;2023-04-24T12:44:19;7.00;;;4.12;;
34102;SDS011;20381;54.498;18.206;2023-04-24T12:46:46;6.42;;;4.80;;
34102;SDS011;20381;54.498;18.206;2023-04-24T12:49:15;6.22;;;4.35;;
34102;SDS011;20381;54.498;18.206;2023-04-24T12:51:44;6.30;;;4.70;;
34102;SDS011;20381;54.498;18.206;2023-04-24T12:54:11;15.28;;;5.37;;
34102;SDS011;20381;54.498;18.206;2023-04-24T12:56:37;7.87;;;4.75;;
34102;SDS011;20381;54.498;18.206;2023-04-24T12:59:06;6.72;;;4.62;;
34102;SDS011;20381;54.498;18.206;2023-04-24T13:01:33;5.47;;;4.37;;
34102;SDS011;20381;54.498;18.206;2023-04-24T13:03:59;10.23;;;4.40;;
34102;SDS011;20381;54.498;18.206;2023-04-24T13:06:25;7.22;;;4.20;;
34102;SDS011;20381;54.498;18.206;2023-04-24T13:08:52;9.10;;;5.33;;
34102;SDS011;20381;54.498;18.206;2023-04-24T13:11:20;7.30;;;4.20;;
34102;SDS011;20381;54.498;18.206;2023-04-24T13:13:47;7.80;;;4.30;;
34102;SDS011;20381;54.498;18.206;2023-04-24T13:16:13;5.55;;;4.90;;
34102;SDS011;20381;54.498;18.206;2023-04-24T13:18:40;25.17;;;6.42;;
34102;SDS011;20381;54.498;18.206;2023-04-24T13:21:06;6.40;;;4.20;;
34102;SDS011;20381;54.498;18.206;2023-04-24T13:23:32;4.40;;;3.60;;
34102;SDS011;20381;54.498;18.206;2023-04-24T13:25:58;10.90;;;3.83;;
34102;SDS011;20381;54.498;18.206;2023-04-24T13:28:25;8.28;;;4.20;;
34102;SDS011;20381;54.498;18.206;2023-04-24T13:30:51;6.33;;;3.77;;
34102;SDS011;20381;54.498;18.206;2023-04-24T13:33:18;5.00;;;3.40;;
34102;SDS011;20381;54.498;18.206;2023-04-24T13:35:44;4.90;;;3.33;;
34102;SDS011;20381;54.498;18.206;2023-04-24T13:38:11;9.60;;;3.33;;
34102;SDS011;20381;54.498;18.206;2023-04-24T13:40:37;6.00;;;3.07;;
34102;SDS011;20381;54.498;18.206;2023-04-24T13:43:03;5.90;;;2.95;;
34102;SDS011;20381;54.498;18.206;2023-04-24T13:45:29;4.30;;;3.00;;
34102;SDS011;20381;54.498;18.206;2023-04-24T13:47:56;6.12;;;3.25;;
34102;SDS011;20381;54.498;18.206;2023-04-24T13:50:22;4.65;;;3.00;;
34102;SDS011;20381;54.498;18.206;2023-04-24T13:52:48;4.85;;;3.20;;
34102;SDS011;20381;54.498;18.206;2023-04-24T13:55:15;6.90;;;2.60;;
34102;SDS011;20381;54.498;18.206;2023-04-24T13:57:41;3.98;;;2.80;;
34102;SDS011;20381;54.498;18.206;2023-04-24T14:00:08;4.85;;;3.00;;
34102;SDS011;20381;54.498;18.206;2023-04-24T14:02:36;6.50;;;3.02;;
34102;SDS011;20381;54.498;18.206;2023-04-24T14:05:02;4.45;;;3.27;;
34102;SDS011;20381;54.498;18.206;2023-04-24T14:07:30;5.53;;;2.87;;
34102;SDS011;20381;54.498;18.206;2023-04-24T14:09:57;5.03;;;2.92;;
34102;SDS011;20381;54.498;18.206;2023-04-24T14:12:23;3.95;;;3.27;;
34102;SDS011;20381;54.498;18.206;2023-04-24T14:14:50;5.83;;;3.45;;
34102;SDS011;20381;54.498;18.206;2023-04-24T14:17:16;3.95;;;3.10;;
34102;SDS011;20381;54.498;18.206;2023-04-24T14:19:42;4.07;;;3.07;;
34102;SDS011;20381;54.498;18.206;2023-04-24T14:22:10;5.42;;;3.37;;
34102;SDS011;20381;54.498;18.206;2023-04-24T14:24:36;5.03;;;3.10;;
34102;SDS011;20381;54.498;18.206;2023-04-24T14:27:03;4.28;;;2.95;;
34102;SDS011;20381;54.498;18.206;2023-04-24T14:29:30;3.22;;;2.92;;
34102;SDS011;20381;54.498;18.206;2023-04-24T14:31:58;4.28;;;2.67;;
34102;SDS011;20381;54.498;18.206;2023-04-24T14:34:24;3.98;;;3.47;;
34102;SDS011;20381;54.498;18.206;2023-04-24T14:39:19;4.40;;;3.70;;
34102;SDS011;20381;54.498;18.206;2023-04-24T14:41:46;5.85;;;3.90;;
34102;SDS011;20381;54.498;18.206;2023-04-24T14:44:12;18.55;;;4.08;;
34102;SDS011;20381;54.498;18.206;2023-04-24T14:46:38;7.27;;;4.00;;
34102;SDS011;20381;54.498;18.206;2023-04-24T14:49:05;5.78;;;4.05;;